Time;durP1;ratioP1;P1;durP2;ratioP2;P2;SDS_P1;SDS_P2;PMS_P1;PMS_P2;Temp;Humidity;BMP_temperature;BMP_pressure;BME280_temperature;BME280_humidity;BME280_pressure;Samples;Min_cycle;Max_cycle;Signal;HPM_P1;HPM_P2
2020/12/26 00:01:56;;;;;;;8.73;6.57;;;2.60;99.90;;;;;;4993719;28;20466;-70
2020/12/26 00:04:22;;;;;;;9.20;7.13;;;2.70;99.90;;;;;;4993710;28;20449;-70
2020/12/26 00:06:50;;;;;;;10.47;7.20;;;2.60;99.90;;;;;;4994208;28;20449;-70
2020/12/26 00:09:16;;;;;;;11.47;7.10;;;2.60;99.90;;;;;;4993687;28;20473;-70
2020/12/26 00:11:43;;;;;;;11.40;6.80;;;2.60;99.90;;;;;;4993596;28;20440;-70
2020/12/26 00:14:09;;;;;;;10.10;6.40;;;2.60;99.90;;;;;;4993650;28;20448;-70
2020/12/26 00:16:36;;;;;;;10.87;7.00;;;2.60;99.90;;;;;;4993555;28;20444;-70
2020/12/26 00:19:02;;;;;;;9.03;6.83;;;2.60;99.90;;;;;;4993583;28;20475;-70
2020/12/26 00:21:28;;;;;;;9.47;6.70;;;2.60;99.90;;;;;;4993039;28;21011;-70
2020/12/26 00:23:54;;;;;;;11.77;6.70;;;2.60;99.90;;;;;;4994098;28;20448;-70
2020/12/26 00:26:20;;;;;;;11.47;6.23;;;2.50;99.90;;;;;;4993480;28;20820;-70
2020/12/26 00:28:47;;;;;;;16.17;6.90;;;2.40;99.90;;;;;;4993455;28;20422;-70
2020/12/26 00:31:15;;;;;;;11.47;7.17;;;2.50;99.90;;;;;;4993379;28;20572;-70
2020/12/26 00:33:41;;;;;;;8.87;6.20;;;2.40;99.90;;;;;;4993458;28;20411;-70
2020/12/26 00:36:08;;;;;;;8.80;6.00;;;2.40;99.90;;;;;;4995951;28;20756;-70
2020/12/26 00:38:34;;;;;;;9.90;6.20;;;2.40;99.90;;;;;;4997168;28;20930;-70
2020/12/26 00:41:00;;;;;;;13.17;7.70;;;2.30;99.90;;;;;;4997349;28;20511;-70
2020/12/26 00:43:26;;;;;;;11.00;6.33;;;2.30;99.90;;;;;;4997402;28;20435;-70
2020/12/26 00:45:53;;;;;;;14.63;7.90;;;2.30;99.90;;;;;;4997041;28;20431;-70
2020/12/26 00:48:19;;;;;;;10.17;6.70;;;2.40;99.90;;;;;;4997335;28;20528;-70
2020/12/26 00:50:45;;;;;;;13.50;7.30;;;2.40;99.90;;;;;;4997248;28;20451;-70
2020/12/26 00:53:12;;;;;;;9.90;6.10;;;2.40;99.90;;;;;;4997157;28;20924;-71
2020/12/26 00:55:38;;;;;;;10.30;6.70;;;2.40;99.90;;;;;;4997147;28;20518;-70
2020/12/26 00:58:04;;;;;;;14.03;7.73;;;2.40;99.90;;;;;;4997116;28;20451;-70
2020/12/26 01:00:30;;;;;;;12.57;7.80;;;2.40;99.90;;;;;;4996970;28;20426;-70
2020/12/26 01:02:57;;;;;;;10.90;6.27;;;2.40;99.90;;;;;;4997036;28;20468;-70
2020/12/26 01:05:23;;;;;;;12.60;7.23;;;2.50;99.90;;;;;;4996994;28;20423;-70
2020/12/26 01:07:49;;;;;;;19.90;6.60;;;2.50;99.90;;;;;;4996613;28;20467;-70
2020/12/26 01:10:15;;;;;;;11.60;6.33;;;2.60;99.90;;;;;;4996591;28;20826;-71
2020/12/26 01:12:42;;;;;;;9.63;6.10;;;2.60;99.90;;;;;;4996458;28;20812;-70
2020/12/26 01:15:08;;;;;;;11.37;6.43;;;2.70;99.90;;;;;;4996801;28;20451;-70
2020/12/26 01:17:34;;;;;;;9.33;5.83;;;2.60;99.90;;;;;;4996781;28;20456;-70
2020/12/26 01:20:01;;;;;;;14.40;7.23;;;2.70;99.90;;;;;;4996247;28;20423;-70
2020/12/26 01:22:27;;;;;;;12.43;6.07;;;2.70;99.90;;;;;;4996732;28;20465;-70
2020/12/26 01:24:53;;;;;;;13.10;6.83;;;2.70;99.90;;;;;;4996637;28;20451;-70
2020/12/26 01:27:20;;;;;;;9.00;5.90;;;2.80;99.90;;;;;;4996610;28;20456;-70
2020/12/26 01:29:46;;;;;;;16.03;6.60;;;2.80;99.90;;;;;;4996550;28;20419;-70
2020/12/26 01:32:12;;;;;;;11.63;6.67;;;2.90;99.90;;;;;;4996407;28;20464;-70
2020/12/26 01:34:38;;;;;;;11.50;6.37;;;2.90;99.90;;;;;;4996447;28;20475;-70
2020/12/26 01:37:05;;;;;;;14.80;6.60;;;2.80;99.90;;;;;;4996431;28;20502;-70
2020/12/26 01:39:31;;;;;;;9.30;6.07;;;2.80;99.90;;;;;;4996330;28;20419;-70
2020/12/26 01:41:57;;;;;;;15.63;8.20;;;2.80;99.90;;;;;;4995985;28;21030;-70
2020/12/26 01:44:24;;;;;;;11.83;6.33;;;2.80;99.90;;;;;;4996311;28;20853;-70
2020/12/26 01:46:51;;;;;;;16.50;8.70;;;2.70;99.90;;;;;;4995864;28;20823;-70
2020/12/26 01:49:19;;;;;;;11.17;6.77;;;2.70;99.90;;;;;;4996260;28;20423;-70
2020/12/26 01:51:46;;;;;;;12.17;6.93;;;2.60;99.90;;;;;;4996049;28;20464;-70
2020/12/26 01:54:14;;;;;;;7.63;5.70;;;2.60;99.90;;;;;;4996170;28;20839;-70
2020/12/26 01:56:42;;;;;;;10.20;6.70;;;2.60;99.90;;;;;;4996097;28;20459;-70
2020/12/26 01:59:08;;;;;;;12.00;6.70;;;2.60;99.90;;;;;;4996071;28;20455;-70
2020/12/26 02:01:36;;;;;;;14.33;7.27;;;2.70;99.90;;;;;;4995901;28;20636;-66
2020/12/26 02:04:02;;;;;;;12.50;6.57;;;2.60;99.90;;;;;;4995648;28;20942;-71
2020/12/26 02:06:32;;;;;;;10.83;6.40;;;2.60;99.90;;;;;;4995975;28;20456;-71
2020/12/26 02:08:59;;;;;;;10.40;6.47;;;2.50;99.90;;;;;;4995918;28;20426;-71
2020/12/26 02:11:27;;;;;;;12.30;6.23;;;2.50;99.90;;;;;;4995912;28;20470;-71
2020/12/26 02:13:54;;;;;;;11.50;6.23;;;2.50;99.90;;;;;;4995534;28;21031;-71
2020/12/26 02:16:20;;;;;;;11.00;6.00;;;2.40;99.90;;;;;;4995469;28;21006;-67
2020/12/26 02:18:47;;;;;;;15.87;6.70;;;2.40;99.90;;;;;;4995697;28;20453;-67
2020/12/26 02:21:13;;;;;;;12.80;6.70;;;2.40;99.90;;;;;;4995142;28;20492;-70
2020/12/26 02:23:43;;;;;;;10.97;5.87;;;2.30;99.90;;;;;;4996126;28;20503;-70
2020/12/26 02:26:10;;;;;;;10.53;5.70;;;2.20;99.90;;;;;;4995575;28;20448;-71
2020/12/26 02:28:36;;;;;;;9.60;5.90;;;2.20;99.90;;;;;;4995517;28;20444;-71
2020/12/26 02:31:02;;;;;;;13.33;6.43;;;2.20;99.90;;;;;;4995144;28;20949;-71
2020/12/26 02:33:28;;;;;;;10.77;6.13;;;2.20;99.90;;;;;;4995413;28;20466;-70
2020/12/26 02:35:55;;;;;;;10.77;6.87;;;2.10;99.90;;;;;;4995460;28;20444;-70
2020/12/26 02:38:21;;;;;;;12.67;6.70;;;2.20;99.90;;;;;;4995028;28;20946;-70
2020/12/26 02:40:48;;;;;;;13.13;7.17;;;2.20;99.90;;;;;;4994852;28;20851;-70
2020/12/26 02:43:19;;;;;;;13.97;6.73;;;2.20;99.90;;;;;;4995176;28;20455;-70
2020/12/26 02:45:46;;;;;;;12.83;7.00;;;2.30;99.90;;;;;;4995167;28;20437;-70
2020/12/26 02:48:12;;;;;;;14.63;6.07;;;2.40;99.90;;;;;;4995130;28;20451;-67
2020/12/26 02:50:38;;;;;;;12.33;6.80;;;2.40;99.90;;;;;;4995091;28;20487;-67
2020/12/26 02:53:04;;;;;;;10.73;6.50;;;2.40;99.90;;;;;;4994983;28;20471;-66
2020/12/26 02:55:31;;;;;;;11.87;6.60;;;2.40;99.90;;;;;;4994718;28;20426;-70
2020/12/26 02:57:58;;;;;;;9.47;5.63;;;2.50;99.90;;;;;;4994224;28;20940;-70
2020/12/26 03:00:24;;;;;;;10.93;6.20;;;2.50;99.90;;;;;;4994850;28;20464;-70
2020/12/26 03:02:50;;;;;;;9.93;7.00;;;2.50;99.90;;;;;;4994830;28;20460;-71
2020/12/26 03:05:16;;;;;;;12.20;6.40;;;2.50;99.90;;;;;;4994809;28;20467;-70
2020/12/26 03:07:43;;;;;;;14.30;6.83;;;2.50;99.90;;;;;;4994731;28;20419;-70
2020/12/26 03:10:09;;;;;;;12.57;7.93;;;2.50;99.90;;;;;;4994715;28;20444;-70
2020/12/26 03:12:35;;;;;;;13.83;6.73;;;2.40;99.90;;;;;;4994358;28;20976;-70
2020/12/26 03:15:02;;;;;;;17.70;8.50;;;2.40;99.90;;;;;;4994609;28;20455;-70
2020/12/26 03:17:28;;;;;;;12.53;6.70;;;2.40;99.90;;;;;;4994704;28;20418;-70
2020/12/26 03:19:54;;;;;;;12.97;6.20;;;2.50;99.90;;;;;;4994481;28;20440;-70
2020/12/26 03:22:21;;;;;;;10.80;6.00;;;2.50;99.90;;;;;;4994332;28;20484;-70
2020/12/26 03:24:47;;;;;;;16.27;7.17;;;2.50;99.90;;;;;;4994398;28;20441;-70
2020/12/26 03:27:13;;;;;;;15.77;6.50;;;2.40;99.90;;;;;;4994393;28;20814;-67
2020/12/26 03:29:39;;;;;;;10.63;6.17;;;2.40;99.90;;;;;;4994037;28;20868;-67
2020/12/26 03:32:06;;;;;;;14.03;6.63;;;2.40;99.90;;;;;;4993942;28;21033;-70
2020/12/26 03:34:32;;;;;;;9.33;6.53;;;2.30;99.90;;;;;;4994250;28;20526;-70
2020/12/26 03:36:58;;;;;;;12.67;6.40;;;2.20;99.90;;;;;;4994300;28;20451;-70
2020/12/26 03:39:24;;;;;;;13.07;6.27;;;2.20;99.90;;;;;;4994277;28;20436;-71
2020/12/26 03:41:50;;;;;;;13.23;5.70;;;2.20;99.90;;;;;;4993931;28;20538;-72
2020/12/26 03:44:17;;;;;;;12.00;7.07;;;2.20;99.90;;;;;;4994100;28;20444;-71
2020/12/26 03:46:43;;;;;;;14.30;6.47;;;2.20;99.90;;;;;;4994053;28;20456;-71
2020/12/26 03:49:10;;;;;;;11.27;6.33;;;2.20;99.90;;;;;;4993694;28;20831;-71
2020/12/26 03:51:36;;;;;;;15.47;6.63;;;2.20;99.90;;;;;;4993907;28;20469;-67
2020/12/26 03:54:02;;;;;;;10.60;6.13;;;2.10;99.90;;;;;;4993956;28;20445;-67
2020/12/26 03:56:28;;;;;;;15.40;6.23;;;2.00;99.90;;;;;;4993701;28;20963;-66
2020/12/26 03:58:55;;;;;;;9.10;5.87;;;2.00;99.90;;;;;;4994001;28;20793;-66
2020/12/26 04:01:21;;;;;;;9.67;6.63;;;1.90;99.90;;;;;;4993748;28;20526;-67
2020/12/26 04:03:47;;;;;;;12.60;5.90;;;1.80;99.90;;;;;;4993793;28;20444;-71
2020/12/26 04:06:14;;;;;;;13.13;6.43;;;1.80;99.90;;;;;;4993777;28;20419;-71
2020/12/26 04:08:40;;;;;;;11.17;6.07;;;1.70;99.90;;;;;;4993709;28;20495;-72
2020/12/26 04:11:06;;;;;;;10.97;6.63;;;1.70;99.90;;;;;;4992872;28;20498;-71
2020/12/26 04:13:32;;;;;;;11.70;5.90;;;1.70;99.90;;;;;;4993706;28;20460;-70
2020/12/26 04:15:58;;;;;;;13.03;6.03;;;1.70;99.90;;;;;;4993753;28;20448;-70
2020/12/26 04:18:25;;;;;;;12.07;6.50;;;1.70;99.90;;;;;;4993773;28;20441;-71
2020/12/26 04:20:51;;;;;;;11.27;6.90;;;1.70;99.90;;;;;;4993228;28;20488;-71
2020/12/26 04:23:18;;;;;;;13.93;6.67;;;1.60;99.90;;;;;;4993499;28;20468;-71
2020/12/26 04:25:44;;;;;;;9.07;5.83;;;1.70;99.90;;;;;;4993570;28;20444;-71
2020/12/26 04:28:10;;;;;;;18.70;6.80;;;1.80;99.90;;;;;;4993543;28;20448;-71
2020/12/26 04:30:36;;;;;;;10.50;6.63;;;1.80;99.90;;;;;;4993465;28;20416;-71
2020/12/26 04:33:02;;;;;;;14.63;6.93;;;1.80;99.90;;;;;;4993388;28;20438;-66
2020/12/26 04:35:29;;;;;;;11.20;6.53;;;1.90;99.90;;;;;;4993549;28;20503;-66
2020/12/26 04:37:55;;;;;;;10.37;6.30;;;1.90;99.90;;;;;;4993685;28;20448;-66
2020/12/26 04:40:22;;;;;;;13.60;6.30;;;1.90;99.90;;;;;;4993357;28;20419;-67
2020/12/26 04:42:50;;;;;;;13.13;6.17;;;1.80;99.90;;;;;;4993257;28;20496;-70
2020/12/26 04:45:17;;;;;;;12.87;6.53;;;1.90;99.90;;;;;;4993018;28;20963;-70
2020/12/26 04:47:48;;;;;;;14.47;7.07;;;2.00;99.90;;;;;;4993344;28;20445;-70
2020/12/26 04:50:16;;;;;;;11.80;6.10;;;2.10;99.90;;;;;;4993089;28;20963;-70
2020/12/26 04:52:47;;;;;;;11.53;6.70;;;2.10;99.90;;;;;;4993224;28;20519;-70
2020/12/26 04:55:13;;;;;;;11.70;5.77;;;2.20;99.90;;;;;;4993295;28;20426;-69
2020/12/26 04:57:40;;;;;;;12.60;6.30;;;2.20;99.90;;;;;;4993303;28;20455;-71
2020/12/26 05:00:07;;;;;;;13.13;6.37;;;2.20;99.90;;;;;;4985324;28;20456;-71
2020/12/26 05:02:36;;;;;;;8.33;5.20;;;2.20;99.90;;;;;;4993062;28;20463;-70
2020/12/26 05:05:03;;;;;;;10.70;6.63;;;2.20;99.90;;;;;;4993149;28;20451;-67
2020/12/26 05:07:31;;;;;;;9.73;5.47;;;2.10;99.90;;;;;;4993238;28;20427;-69
2020/12/26 05:09:57;;;;;;;8.97;5.67;;;2.10;99.90;;;;;;4993108;28;20440;-69
2020/12/26 05:12:23;;;;;;;10.37;5.47;;;2.20;99.90;;;;;;4992724;28;20988;-69
2020/12/26 05:14:51;;;;;;;11.83;6.30;;;2.20;99.90;;;;;;4993065;28;20943;-69
2020/12/26 05:17:18;;;;;;;9.80;4.90;;;2.20;99.90;;;;;;4993043;28;20515;-69
2020/12/26 05:19:45;;;;;;;12.73;5.97;;;2.20;99.90;;;;;;4992641;28;20455;-69
2020/12/26 05:22:12;;;;;;;8.87;5.40;;;2.10;99.90;;;;;;4994738;28;20579;-67
2020/12/26 05:24:38;;;;;;;8.13;4.80;;;2.10;99.90;;;;;;4996622;28;20513;-67
2020/12/26 05:27:05;;;;;;;9.20;5.40;;;2.20;99.90;;;;;;4996618;28;20452;-66
2020/12/26 05:29:36;;;;;;;13.03;6.10;;;2.20;99.90;;;;;;4997360;28;20440;-66
2020/12/26 05:32:05;;;;;;;9.83;5.80;;;2.20;99.90;;;;;;4996174;28;20828;-69
2020/12/26 05:34:32;;;;;;;14.20;6.00;;;2.20;99.90;;;;;;4996200;28;20915;-69
2020/12/26 05:36:59;;;;;;;8.60;5.27;;;2.30;99.90;;;;;;4996594;28;20418;-70
2020/12/26 05:39:28;;;;;;;11.00;6.13;;;2.30;99.90;;;;;;4996527;28;20445;-71
2020/12/26 05:41:55;;;;;;;10.43;5.80;;;2.30;99.90;;;;;;4995968;28;20582;-71
2020/12/26 05:44:25;;;;;;;9.37;5.30;;;2.30;99.90;;;;;;4996312;28;20531;-66
2020/12/26 05:46:55;;;;;;;9.63;5.73;;;2.30;99.90;;;;;;4996327;28;20793;-66
2020/12/26 05:49:27;;;;;;;7.97;4.60;;;2.30;99.90;;;;;;4996264;28;20448;-66
2020/12/26 05:51:58;;;;;;;12.50;6.70;;;2.20;99.90;;;;;;4996215;28;20469;-66
2020/12/26 05:54:25;;;;;;;9.47;6.07;;;2.20;99.90;;;;;;4996167;28;20956;-66
2020/12/26 05:57:07;;;;;;;9.93;5.47;;;2.20;99.90;;;;;;4996053;28;20453;-69
2020/12/26 05:59:33;;;;;;;10.40;5.10;;;2.10;99.90;;;;;;4995767;28;20909;-69
2020/12/26 06:02:20;;;;;;;10.97;5.33;;;2.10;99.90;;;;;;4995808;28;20490;-69
2020/12/26 06:04:52;;;;;;;7.87;4.97;;;2.00;99.90;;;;;;4996003;28;20483;-69
2020/12/26 06:07:22;;;;;;;8.47;6.23;;;2.00;99.90;;;;;;4995883;28;20432;-69
2020/12/26 06:09:52;;;;;;;11.70;5.67;;;2.00;99.90;;;;;;4995822;28;20448;-69
2020/12/26 06:12:19;;;;;;;13.70;5.43;;;2.00;99.90;;;;;;4995407;28;20523;-69
2020/12/26 06:14:47;;;;;;;10.90;5.00;;;2.00;99.90;;;;;;4995739;28;20448;-69
2020/12/26 06:17:19;;;;;;;10.60;5.77;;;2.00;99.90;;;;;;4995392;28;21010;-66
2020/12/26 06:19:53;;;;;;;15.47;5.47;;;2.00;99.90;;;;;;4995794;28;20546;-66
2020/12/26 06:22:19;;;;;;;10.90;6.10;;;1.90;99.90;;;;;;4995538;28;20526;-66
2020/12/26 06:24:47;;;;;;;10.73;5.43;;;1.90;99.90;;;;;;4995260;28;20450;-69
2020/12/26 06:27:14;;;;;;;9.30;5.27;;;1.90;99.90;;;;;;4995515;28;20421;-69
2020/12/26 06:29:42;;;;;;;8.40;5.93;;;1.90;99.90;;;;;;4995486;28;20531;-69
2020/12/26 06:32:09;;;;;;;9.73;6.07;;;1.80;99.90;;;;;;4994856;28;21026;-66
2020/12/26 06:34:39;;;;;;;6.53;4.67;;;1.80;99.90;;;;;;4994487;28;20926;-66
2020/12/26 06:37:06;;;;;;;12.37;6.67;;;1.70;99.90;;;;;;4995403;28;20466;-66
2020/12/26 06:39:33;;;;;;;10.33;6.00;;;1.60;99.90;;;;;;4995319;28;20430;-66
2020/12/26 06:42:10;;;;;;;10.83;5.70;;;1.60;99.90;;;;;;4994801;28;20467;-66
2020/12/26 06:44:36;;;;;;;11.10;6.20;;;1.50;99.90;;;;;;4995233;28;20411;-66
2020/12/26 06:47:03;;;;;;;11.73;6.13;;;1.40;99.90;;;;;;4995078;28;20444;-69
2020/12/26 06:49:29;;;;;;;11.93;5.87;;;1.40;99.90;;;;;;4995192;28;20430;-69
2020/12/26 06:51:56;;;;;;;9.07;5.70;;;1.40;99.90;;;;;;4995277;28;20495;-70
2020/12/26 06:54:45;;;;;;;12.00;5.57;;;1.40;99.90;;;;;;4995005;28;20503;-69
2020/12/26 06:57:37;;;;;;;11.67;5.70;;;1.40;99.90;;;;;;4994962;28;20419;-69
2020/12/26 07:00:28;;;;;;;9.90;5.13;;;1.30;99.90;;;;;;4994542;28;20934;-71
2020/12/26 07:03:17;;;;;;;9.93;6.67;;;1.30;99.90;;;;;;4984950;28;20471;-71
2020/12/26 07:05:43;;;;;;;8.90;4.90;;;1.20;99.90;;;;;;4994726;28;20449;-71
2020/12/26 07:08:20;;;;;;;13.20;6.23;;;1.20;99.90;;;;;;4994765;28;20452;-69
2020/12/26 07:10:47;;;;;;;15.03;5.80;;;1.20;99.90;;;;;;4994421;28;20458;-69
2020/12/26 07:13:44;;;;;;;10.73;5.80;;;1.20;99.90;;;;;;4994531;28;20438;-69
2020/12/26 07:16:42;;;;;;;9.30;5.67;;;1.20;99.90;;;;;;4994318;28;20399;-70
2020/12/26 07:19:37;;;;;;;9.57;5.57;;;1.30;99.90;;;;;;4994172;28;20514;-69
2020/12/26 07:22:04;;;;;;;10.13;6.23;;;1.30;99.90;;;;;;4993940;28;20575;-66
2020/12/26 07:24:33;;;;;;;9.77;6.03;;;1.30;99.90;;;;;;4994400;28;20494;-69
2020/12/26 07:27:26;;;;;;;11.03;6.50;;;1.40;99.90;;;;;;4994452;28;20424;-69
2020/12/26 07:30:02;;;;;;;10.90;5.30;;;1.40;99.90;;;;;;4994385;28;20455;-69
2020/12/26 07:32:55;;;;;;;10.27;6.57;;;1.40;99.90;;;;;;4994430;28;20464;-71
2020/12/26 07:35:41;;;;;;;14.13;6.30;;;1.40;99.90;;;;;;4994349;28;20428;-71
2020/12/26 07:38:10;;;;;;;9.20;5.40;;;1.40;99.90;;;;;;4994283;28;20494;-66
2020/12/26 07:40:37;;;;;;;15.13;6.23;;;1.40;99.90;;;;;;4994122;28;20421;-66
2020/12/26 07:43:08;;;;;;;10.87;6.07;;;1.50;99.90;;;;;;4993946;28;20463;-66
2020/12/26 07:45:35;;;;;;;9.77;5.60;;;1.50;99.90;;;;;;4993964;28;20462;-66
2020/12/26 07:48:02;;;;;;;13.43;6.00;;;1.50;99.90;;;;;;4994078;28;20427;-66
2020/12/26 07:50:31;;;;;;;14.13;6.80;;;1.40;99.90;;;;;;4994114;28;20786;-71
2020/12/26 07:52:59;;;;;;;10.87;5.63;;;1.40;99.90;;;;;;4993947;28;20464;-66
2020/12/26 07:55:27;;;;;;;9.50;6.43;;;1.40;99.90;;;;;;4993988;28;20456;-69
2020/12/26 07:58:03;;;;;;;10.77;6.77;;;1.50;99.90;;;;;;4993853;28;20448;-69
2020/12/26 08:00:32;;;;;;;10.10;6.13;;;1.50;99.90;;;;;;4993884;28;20407;-69
2020/12/26 08:03:01;;;;;;;9.67;6.93;;;1.60;99.90;;;;;;4993686;28;20467;-69
2020/12/26 08:05:29;;;;;;;11.30;6.17;;;1.60;99.90;;;;;;4993812;28;20499;-67
2020/12/26 08:07:55;;;;;;;10.03;6.00;;;1.70;99.90;;;;;;4993826;28;20427;-66
2020/12/26 08:10:22;;;;;;;9.00;5.70;;;1.80;99.90;;;;;;4993632;28;20434;-69
2020/12/26 08:12:54;;;;;;;12.43;6.57;;;1.90;99.90;;;;;;4993577;28;20847;-69
2020/12/26 08:15:22;;;;;;;10.53;6.33;;;2.00;99.90;;;;;;4993627;28;20439;-69
2020/12/26 08:17:52;;;;;;;17.60;7.40;;;2.00;99.90;;;;;;4993952;28;20440;-69
2020/12/26 08:20:21;;;;;;;10.73;5.77;;;2.10;99.90;;;;;;4993103;28;20451;-69
2020/12/26 08:22:47;;;;;;;7.43;6.03;;;2.10;99.90;;;;;;4993391;28;20577;-69
2020/12/26 08:25:14;;;;;;;8.00;5.80;;;2.10;99.90;;;;;;4993233;28;20900;-69
2020/12/26 08:27:41;;;;;;;11.83;5.43;;;2.20;99.90;;;;;;4993503;28;20780;-69
2020/12/26 08:30:10;;;;;;;9.57;5.93;;;2.30;99.90;;;;;;4993178;28;20967;-69
2020/12/26 08:32:52;;;;;;;11.80;6.70;;;2.30;99.90;;;;;;4993362;28;20472;-69
2020/12/26 08:35:21;;;;;;;6.63;5.07;;;2.30;99.90;;;;;;4993399;28;20491;-69
2020/12/26 08:37:56;;;;;;;10.07;6.03;;;2.30;99.90;;;;;;4993420;28;20494;-69
2020/12/26 08:40:23;;;;;;;8.63;5.70;;;2.30;99.90;;;;;;4993420;28;20490;-69
2020/12/26 08:42:50;;;;;;;8.23;5.77;;;2.30;99.90;;;;;;4993217;28;20518;-69
2020/12/26 08:45:31;;;;;;;10.70;6.33;;;2.30;99.90;;;;;;4993541;28;20789;-69
2020/12/26 08:48:01;;;;;;;9.80;5.60;;;2.40;99.90;;;;;;4993379;28;20434;-69
2020/12/26 08:50:28;;;;;;;10.37;6.07;;;2.50;99.90;;;;;;4993365;28;20416;-69
2020/12/26 08:53:12;;;;;;;11.67;5.57;;;2.70;99.90;;;;;;4993160;28;20465;-69
2020/12/26 08:55:48;;;;;;;9.03;5.13;;;2.90;99.90;;;;;;4992938;28;20908;-69
2020/12/26 08:58:24;;;;;;;9.27;5.67;;;3.10;99.90;;;;;;4997103;28;20514;-69
2020/12/26 09:00:51;;;;;;;6.00;5.20;;;3.30;99.90;;;;;;4996821;28;20439;-69
2020/12/26 09:03:22;;;;;;;8.37;5.63;;;3.40;99.90;;;;;;4996587;28;21112;-69
2020/12/26 09:05:48;;;;;;;6.40;4.97;;;3.60;99.90;;;;;;4996967;28;20502;-69
2020/12/26 09:08:14;;;;;;;5.50;4.30;;;3.80;99.90;;;;;;4997559;28;20455;-70
2020/12/26 09:10:42;;;;;;;6.33;4.13;;;3.90;99.90;;;;;;4996937;28;20477;-69
2020/12/26 09:13:09;;;;;;;6.43;4.50;;;4.00;99.90;;;;;;4996787;28;20464;-69
2020/12/26 09:15:52;;;;;;;6.27;4.63;;;4.20;99.90;;;;;;4996910;28;20452;-69
2020/12/26 09:18:19;;;;;;;7.20;3.83;;;4.40;99.90;;;;;;4996835;28;20436;-69
2020/12/26 09:20:53;;;;;;;4.97;3.97;;;4.40;99.90;;;;;;4996263;28;20479;-69
2020/12/26 09:23:20;;;;;;;5.93;4.70;;;4.50;99.90;;;;;;4996698;28;20495;-69
2020/12/26 09:25:47;;;;;;;8.27;4.37;;;4.50;99.90;;;;;;4996723;28;20430;-69
2020/12/26 09:28:13;;;;;;;4.60;3.80;;;4.70;99.90;;;;;;4996573;28;20506;-69
2020/12/26 09:30:40;;;;;;;5.00;3.80;;;5.00;99.90;;;;;;4996607;28;20429;-70
2020/12/26 09:33:06;;;;;;;7.80;4.70;;;5.70;99.90;;;;;;4988407;28;20476;-70
2020/12/26 09:35:34;;;;;;;5.33;4.33;;;6.20;99.90;;;;;;4996527;28;20455;-69
2020/12/26 09:38:02;;;;;;;10.43;4.10;;;6.10;99.90;;;;;;4996538;28;20534;-69
2020/12/26 09:40:30;;;;;;;6.00;3.53;;;5.70;99.90;;;;;;4996255;28;20479;-69
2020/12/26 09:42:56;;;;;;;5.80;3.97;;;5.40;99.90;;;;;;4996334;28;20511;-69
2020/12/26 09:45:23;;;;;;;5.07;4.30;;;5.30;99.90;;;;;;4996353;28;20448;-69
2020/12/26 09:47:49;;;;;;;7.00;4.70;;;5.30;99.90;;;;;;4996410;28;20445;-69
2020/12/26 09:50:15;;;;;;;7.63;4.00;;;5.80;99.90;;;;;;4996339;28;20444;-70
2020/12/26 09:52:42;;;;;;;9.60;4.13;;;6.50;99.90;;;;;;4996140;28;20814;-70
2020/12/26 09:55:10;;;;;;;6.43;4.63;;;6.80;99.90;;;;;;4996173;28;20448;-69
2020/12/26 09:57:37;;;;;;;4.83;4.27;;;6.80;99.90;;;;;;4995819;28;20448;-69
2020/12/26 10:00:05;;;;;;;6.90;4.17;;;6.70;99.90;;;;;;4996122;28;20452;-69
2020/12/26 10:02:31;;;;;;;4.83;4.03;;;6.70;99.90;;;;;;4996470;28;20496;-69
2020/12/26 10:04:57;;;;;;;5.47;4.10;;;6.60;99.90;;;;;;4996654;28;20808;-70
2020/12/26 10:07:23;;;;;;;6.17;4.40;;;6.60;99.90;;;;;;4995198;28;20433;-69
2020/12/26 10:09:50;;;;;;;6.43;4.93;;;6.50;99.90;;;;;;4995648;28;20483;-69
2020/12/26 10:12:16;;;;;;;8.60;5.10;;;6.30;99.90;;;;;;4995999;28;20471;-70
2020/12/26 10:14:43;;;;;;;7.47;5.23;;;6.20;99.90;;;;;;4995614;28;20928;-69
2020/12/26 10:17:09;;;;;;;5.83;4.50;;;6.10;99.90;;;;;;4995848;28;20428;-69
2020/12/26 10:19:35;;;;;;;5.83;4.60;;;6.10;99.90;;;;;;4995810;28;20437;-69
2020/12/26 10:22:01;;;;;;;4.87;4.37;;;6.10;99.90;;;;;;4995230;28;20492;-69
2020/12/26 10:24:27;;;;;;;6.93;4.97;;;6.20;99.90;;;;;;4995499;28;20861;-69
2020/12/26 10:26:53;;;;;;;6.33;4.70;;;6.40;99.90;;;;;;4996098;28;20773;-69
2020/12/26 10:29:20;;;;;;;7.73;5.20;;;6.50;99.90;;;;;;4995723;28;20428;-69
2020/12/26 10:31:46;;;;;;;5.30;4.80;;;6.70;99.90;;;;;;4995600;28;20468;-70
2020/12/26 10:34:13;;;;;;;5.33;4.50;;;6.80;99.90;;;;;;4995660;28;20492;-69
2020/12/26 10:36:42;;;;;;;5.93;4.93;;;6.90;99.90;;;;;;4995589;28;20470;-70
2020/12/26 10:39:09;;;;;;;6.63;5.03;;;7.00;99.90;;;;;;4995489;28;20432;-69
2020/12/26 10:41:35;;;;;;;8.00;4.77;;;7.10;99.90;;;;;;4995222;28;20480;-69
2020/12/26 10:44:01;;;;;;;4.67;4.17;;;7.40;99.90;;;;;;4995469;28;20491;-70
2020/12/26 10:46:29;;;;;;;6.70;4.80;;;7.60;99.90;;;;;;4995134;28;20979;-70
2020/12/26 10:48:55;;;;;;;7.57;5.10;;;7.80;99.90;;;;;;4995370;28;20520;-69
2020/12/26 10:51:21;;;;;;;7.03;4.63;;;7.80;99.90;;;;;;4995245;28;20487;-69
2020/12/26 10:53:48;;;;;;;9.63;4.80;;;7.80;99.90;;;;;;4995255;28;20799;-69
2020/12/26 10:56:14;;;;;;;6.73;4.30;;;8.40;99.90;;;;;;4994936;28;20432;-69
2020/12/26 10:58:40;;;;;;;4.73;4.20;;;8.60;99.90;;;;;;4995092;28;20432;-69
2020/12/26 11:01:06;;;;;;;4.67;4.13;;;8.60;99.90;;;;;;4987053;28;20429;-69
2020/12/26 11:03:33;;;;;;;5.27;4.17;;;8.50;99.90;;;;;;4994859;28;20558;-69
2020/12/26 11:05:59;;;;;;;7.43;4.97;;;8.10;99.90;;;;;;4994984;28;20448;-69
2020/12/26 11:08:26;;;;;;;5.07;4.57;;;8.00;99.90;;;;;;4994996;28;20433;-69
2020/12/26 11:10:52;;;;;;;5.67;4.03;;;7.90;99.90;;;;;;4994599;28;20917;-70
2020/12/26 11:13:19;;;;;;;5.37;4.73;;;7.70;99.90;;;;;;4994760;28;20531;-69
2020/12/26 11:15:45;;;;;;;5.10;4.60;;;7.60;99.90;;;;;;4994582;28;20440;-69
2020/12/26 11:18:11;;;;;;;6.17;4.53;;;7.40;99.90;;;;;;4994804;28;20420;-69
2020/12/26 11:20:38;;;;;;;6.50;4.43;;;7.20;99.90;;;;;;4993860;28;20476;-69
2020/12/26 11:23:05;;;;;;;8.70;4.20;;;7.30;99.90;;;;;;4994139;28;21054;-69
2020/12/26 11:25:31;;;;;;;6.07;4.80;;;7.20;99.90;;;;;;4995424;28;20437;-69
2020/12/26 11:27:57;;;;;;;4.30;3.90;;;7.30;99.90;;;;;;4994480;28;20935;-69
2020/12/26 11:30:23;;;;;;;5.37;3.70;;;7.40;99.90;;;;;;4994529;28;20433;-70
2020/12/26 11:32:49;;;;;;;5.50;4.50;;;7.40;99.90;;;;;;4994387;28;20489;-69
2020/12/26 11:35:15;;;;;;;5.53;4.50;;;7.50;99.90;;;;;;4994444;28;20433;-69
2020/12/26 11:37:42;;;;;;;6.90;4.40;;;7.80;99.90;;;;;;4994405;28;20433;-69
2020/12/26 11:40:09;;;;;;;4.57;3.30;;;8.00;99.90;;;;;;4994270;28;21018;-69
2020/12/26 11:42:38;;;;;;;6.50;4.10;;;8.80;99.90;;;;;;4994231;28;20480;-69
2020/12/26 11:45:05;;;;;;;4.23;3.80;;;9.80;98.90;;;;;;4994271;28;20460;-70
2020/12/26 11:47:32;;;;;;;4.90;4.30;;;10.30;96.30;;;;;;4994208;28;20452;-70
2020/12/26 11:49:58;;;;;;;4.60;4.20;;;10.70;93.70;;;;;;4994220;28;20515;-70
2020/12/26 11:52:24;;;;;;;5.33;4.13;;;11.10;91.70;;;;;;4994082;28;20997;-70
2020/12/26 11:54:51;;;;;;;5.87;4.20;;;11.10;90.20;;;;;;4994111;28;20432;-70
2020/12/26 11:57:18;;;;;;;5.80;5.17;;;10.70;89.50;;;;;;4994088;28;20432;-70
2020/12/26 11:59:45;;;;;;;7.47;5.20;;;10.30;89.40;;;;;;4993767;28;20909;-70
2020/12/26 12:02:12;;;;;;;9.37;5.57;;;9.70;91.50;;;;;;4993904;28;20488;-69
2020/12/26 12:04:38;;;;;;;7.37;4.60;;;9.40;92.80;;;;;;4993936;28;20433;-69
2020/12/26 12:07:05;;;;;;;5.20;4.70;;;9.10;92.30;;;;;;4993908;28;20459;-69
2020/12/26 12:09:31;;;;;;;5.07;4.43;;;8.80;92.90;;;;;;4993860;28;20444;-69
2020/12/26 12:11:58;;;;;;;4.37;3.97;;;8.40;93.70;;;;;;4993537;28;21046;-70
2020/12/26 12:14:24;;;;;;;5.40;3.93;;;8.20;94.00;;;;;;4993811;28;20437;-69
2020/12/26 12:16:50;;;;;;;7.10;4.80;;;7.90;94.30;;;;;;4993484;28;20428;-69
2020/12/26 12:19:16;;;;;;;8.03;4.30;;;7.80;94.20;;;;;;4993773;28;20437;-69
2020/12/26 12:21:44;;;;;;;7.13;4.07;;;7.70;95.30;;;;;;4993191;28;20503;-69
2020/12/26 12:24:10;;;;;;;4.43;4.03;;;7.50;95.70;;;;;;4993606;28;20432;-69
2020/12/26 12:26:36;;;;;;;7.43;4.53;;;7.30;96.20;;;;;;4993634;28;20467;-69
2020/12/26 12:29:03;;;;;;;4.60;3.73;;;7.10;96.90;;;;;;4993593;28;20440;-69
2020/12/26 12:31:36;;;;;;;9.40;4.17;;;7.00;95.80;;;;;;4992438;28;20929;-70
2020/12/26 12:34:03;;;;;;;6.00;4.37;;;7.00;96.00;;;;;;4993256;28;20476;-69
2020/12/26 12:36:29;;;;;;;4.87;3.30;;;6.90;96.60;;;;;;4993252;28;20435;-69
2020/12/26 12:38:55;;;;;;;6.23;3.70;;;7.00;97.80;;;;;;4993563;28;20432;-69
2020/12/26 12:41:22;;;;;;;4.43;3.73;;;6.90;96.90;;;;;;4993358;28;20440;-69
2020/12/26 12:43:48;;;;;;;5.60;3.13;;;6.90;95.80;;;;;;4993083;28;20998;-69
2020/12/26 12:46:15;;;;;;;3.30;3.00;;;6.90;96.80;;;;;;4993358;28;20433;-69
2020/12/26 12:48:41;;;;;;;3.87;3.40;;;6.80;97.40;;;;;;4993062;28;20909;-69
2020/12/26 12:51:08;;;;;;;5.27;3.83;;;6.80;96.50;;;;;;4993446;28;20433;-69
2020/12/26 12:53:34;;;;;;;4.30;3.70;;;6.80;96.40;;;;;;4993309;28;20826;-69
2020/12/26 12:56:00;;;;;;;5.50;3.70;;;6.80;98.60;;;;;;4993269;28;20429;-69
2020/12/26 12:58:26;;;;;;;5.77;3.90;;;6.70;98.80;;;;;;4993162;28;20902;-69